Main page
METAR-TAF:

METAR-TAF

Airports :

Vigo–Peinador Airport

Vigo, Spain

latitude: 42-13N, longitude: 008-38W, elevation: 264 m

Current weather observation

The report was made 25 minutes ago, at 03:30 UTC
Wind 7 kt from the South/Southwest
Temperature 10°C
Humidity 93%
Pressure 1026 hPa
Visibility 10 km or more
no clouds below 1500 m and no cumulonimbus

METAR: LEVX 270330Z 20007KT CAVOK 10/09 Q1026 NOSIG

Time: 04:55 (03:55 UTC)

Forecast

The report was made 4 hours and 55 minutes ago, at 23:00 UTC
Forecast valid from 27 at 00 UTC to 27 at 24 UTC
Wind 5 kt from variable directions
Visibility 10 km or more
no clouds below 1500 m and no cumulonimbus
Probability 30% :
Temporary
from 27 at 03 UTC to 27 at 08 UTC
Visibility: 0350 m
at a height of 100 ft
fog, patches of fog

TAF: LEVX 262300Z 2700/2724 VRB05KT CAVOK TX19/2715Z TN09/2706Z PROB30 TEMPO 2703/2708 0350 FG BCFG VV001

Weather observations and forecasts of more than 4000 airports (METAR and TAF reports).

The available stations are represented by yellow and red dots on the map.

Hover mouse over dot to see the name of the station.

Then click to see weather observations and forecasts.

To change the map : click on the green buttons with a black cross to zoom in, on the green button with a dash to zoom out, or on the green arrows for adjacent maps.


METAR-TAF: